Time;durP1;ratioP1;P1;durP2;ratioP2;P2;SDS_P1;SDS_P2;PMS_P1;PMS_P2;Temp;Humidity;BMP_temperature;BMP_pressure;BME280_temperature;BME280_humidity;BME280_pressure;Samples;Min_cycle;Max_cycle;Signal;HPM_P1;HPM_P2
2023/05/31 00:01:43;;;;;;;1.55;1.10;;;;;;;20.82;51.45;102525.72;5007901;28;20037;-53
2023/05/31 00:04:09;;;;;;;2.25;1.25;;;;;;;20.82;51.24;102531.16;5004523;28;20022;-54
2023/05/31 00:06:35;;;;;;;1.27;1.17;;;;;;;20.82;51.45;102527.59;5004155;28;20026;-54
2023/05/31 00:09:01;;;;;;;0.95;0.93;;;;;;;20.80;50.95;102522.28;5003541;28;20027;-54
2023/05/31 00:11:26;;;;;;;1.05;1.00;;;;;;;20.81;51.20;102534.84;5008305;28;20041;-54
2023/05/31 00:13:52;;;;;;;1.20;1.10;;;;;;;20.80;51.50;102522.28;5010310;28;20034;-54
2023/05/31 00:16:18;;;;;;;0.90;0.90;;;;;;;20.80;51.45;102527.69;5009742;28;20034;-54
2023/05/31 00:18:43;;;;;;;1.20;1.10;;;;;;;20.80;50.98;102526.84;5012111;28;20041;-53
2023/05/31 00:21:09;;;;;;;1.13;1.02;;;;;;;20.80;50.73;102533.13;5011893;28;20032;-54
2023/05/31 00:23:34;;;;;;;1.30;1.20;;;;;;;20.79;50.99;102530.53;5011272;28;20033;-54
2023/05/31 00:26:00;;;;;;;1.35;1.25;;;;;;;20.79;51.08;102531.41;5011724;28;20132;-54
2023/05/31 00:28:26;;;;;;;0.93;0.90;;;;;;;20.77;51.17;102522.56;5008647;28;20037;-54
2023/05/31 00:30:52;;;;;;;1.73;1.30;;;;;;;20.79;50.93;102533.22;5008693;28;20400;-54
2023/05/31 00:33:17;;;;;;;0.95;0.88;;;;;;;20.78;50.79;102526.13;5012492;28;20036;-54
2023/05/31 00:35:42;;;;;;;1.10;1.00;;;;;;;20.77;51.34;102521.66;5009074;28;20038;-54
2023/05/31 00:38:08;;;;;;;1.15;1.05;;;;;;;20.78;51.25;102523.41;5014690;28;20435;-53
2023/05/31 00:40:34;;;;;;;1.20;1.02;;;;;;;20.77;51.03;102532.50;5009037;28;20026;-54
2023/05/31 00:42:59;;;;;;;1.02;0.98;;;;;;;20.75;50.67;102518.22;5008266;28;20069;-54
2023/05/31 00:45:25;;;;;;;1.23;1.13;;;;;;;20.76;50.90;102517.25;5007785;28;20042;-54
2023/05/31 00:47:50;;;;;;;1.20;0.95;;;;;;;20.76;51.26;102519.97;5009578;28;20034;-54
2023/05/31 00:50:16;;;;;;;1.00;1.00;;;;;;;20.75;50.95;102523.63;5009192;28;20121;-54
2023/05/31 00:52:44;;;;;;;1.15;1.05;;;;;;;20.74;50.83;102528.22;5013233;28;20479;-54
2023/05/31 00:55:10;;;;;;;1.10;1.10;;;;;;;20.74;51.13;102530.06;5009344;28;20036;-54
2023/05/31 00:57:36;;;;;;;1.17;1.17;;;;;;;20.74;51.16;102536.31;5010395;28;20413;-54
2023/05/31 01:00:03;;;;;;;1.10;1.10;;;;;;;20.74;51.14;102532.75;5012088;28;20041;-54
2023/05/31 01:02:32;;;;;;;1.10;1.00;;;;;;;20.74;50.87;102535.47;5007956;28;20029;-53
2023/05/31 01:04:57;;;;;;;1.17;1.00;;;;;;;20.73;51.33;102533.72;5007395;28;20034;-54
2023/05/31 01:07:23;;;;;;;0.98;0.98;;;;;;;20.74;51.13;102532.75;5009020;28;20030;-54
2023/05/31 01:09:50;;;;;;;0.95;0.95;;;;;;;20.72;50.58;102529.31;5009160;28;20035;-54
2023/05/31 01:12:18;;;;;;;0.80;0.80;;;;;;;20.72;51.08;102534.75;5008460;28;20061;-54
2023/05/31 01:15:03;;;;;;;1.52;1.00;;;;;;;20.71;50.83;102536.56;5006555;28;20034;-54
2023/05/31 01:18:00;;;;;;;1.00;0.93;;;;;;;20.72;50.59;102532.88;5008529;28;20027;-54
2023/05/31 01:20:31;;;;;;;1.20;1.10;;;;;;;20.71;50.99;102539.25;5009741;28;20483;-54
2023/05/31 01:23:03;;;;;;;1.10;1.00;;;;;;;20.72;50.40;102529.31;5010470;28;20026;-54
2023/05/31 01:25:31;;;;;;;;;;;;;;;20.82;50.78;102533.00;5005986;28;20100;-54
2023/05/31 01:27:59;;;;;;;1.00;1.00;;;;;;;20.72;50.41;102532.03;5008312;28;19996;-54
2023/05/31 01:30:27;;;;;;;1.27;1.10;;;;;;;20.70;50.51;102541.13;5010356;28;20034;-54
2023/05/31 01:32:55;;;;;;;0.90;0.90;;;;;;;20.70;50.77;102538.41;5008526;28;20077;-54
2023/05/31 01:35:21;;;;;;;0.98;0.98;;;;;;;20.68;50.78;102534.97;5007878;28;20104;-54
2023/05/31 01:37:46;;;;;;;1.20;1.10;;;;;;;20.70;50.76;102533.00;5006949;28;20137;-54
2023/05/31 01:40:13;;;;;;;2.25;1.13;;;;;;;20.67;50.46;102535.94;5006896;28;20041;-54
2023/05/31 01:42:40;;;;;;;0.93;0.93;;;;;;;20.68;51.08;102539.53;5008484;28;20042;-54
2023/05/31 01:45:06;;;;;;;1.20;1.10;;;;;;;20.67;50.90;102527.81;5009126;28;20504;-53
2023/05/31 01:47:33;;;;;;;1.10;1.05;;;;;;;20.68;50.99;102523.28;5008088;28;20041;-54
2023/05/31 01:49:58;;;;;;;0.77;0.77;;;;;;;20.68;50.53;102523.28;5014567;28;20038;-53
2023/05/31 01:52:25;;;;;;;0.70;0.70;;;;;;;20.67;50.40;102516.13;5008008;28;20084;-54
2023/05/31 01:54:50;;;;;;;0.80;0.80;;;;;;;20.66;50.32;102520.69;5008174;28;20435;-53
2023/05/31 01:57:17;;;;;;;0.93;0.93;;;;;;;20.66;50.19;102514.44;5007078;28;20042;-54
2023/05/31 01:59:43;;;;;;;0.80;0.80;;;;;;;20.65;50.67;102521.66;5006588;28;20037;-54
2023/05/31 02:02:09;;;;;;;0.98;0.98;;;;;;;20.65;50.60;102510.84;5007806;28;20038;-54
2023/05/31 02:04:34;;;;;;;1.00;1.00;;;;;;;20.65;50.40;102513.56;5008129;28;20026;-54
2023/05/31 02:07:00;;;;;;;1.25;1.15;;;;;;;20.64;50.83;102511.84;5007923;28;20049;-53
2023/05/31 02:09:25;;;;;;;1.00;1.00;;;;;;;20.65;50.22;102512.69;5007231;28;20038;-53
2023/05/31 02:11:51;;;;;;;1.10;1.00;;;;;;;20.63;50.64;102510.09;5008250;28;20034;-54
2023/05/31 02:14:16;;;;;;;0.82;0.82;;;;;;;20.63;50.83;102510.09;5006881;28;20464;-54
2023/05/31 02:16:41;;;;;;;1.17;0.90;;;;;;;20.64;50.51;102509.13;5007120;28;20034;-54
2023/05/31 02:19:08;;;;;;;1.17;1.08;;;;;;;20.64;50.64;102503.72;5007969;28;20472;-54
2023/05/31 02:21:36;;;;;;;1.08;0.90;;;;;;;20.62;50.13;102503.00;5011991;28;20045;-54
2023/05/31 02:24:02;;;;;;;1.52;0.98;;;;;;;20.62;50.36;102502.09;5008121;28;20099;-53
2023/05/31 02:26:27;;;;;;;1.55;0.90;;;;;;;20.62;50.24;102511.13;5012861;28;20438;-53
2023/05/31 02:28:53;;;;;;;1.05;0.98;;;;;;;20.61;50.89;102509.38;5006738;28;20060;-54
2023/05/31 02:31:18;;;;;;;1.00;0.90;;;;;;;20.61;50.75;102508.53;5007564;28;20049;-53
2023/05/31 02:33:44;;;;;;;1.20;1.10;;;;;;;20.61;50.89;102505.81;5006220;28;20038;-54
2023/05/31 02:36:11;;;;;;;0.98;0.98;;;;;;;20.60;50.47;102501.38;5005591;28;20678;-54
2023/05/31 02:38:37;;;;;;;1.00;0.93;;;;;;;20.60;50.29;102501.38;5006284;28;20124;-53
2023/05/31 02:41:02;;;;;;;1.05;1.05;;;;;;;20.59;50.35;102503.19;5005729;28;20042;-53
2023/05/31 02:43:28;;;;;;;1.10;1.00;;;;;;;20.59;50.41;102505.91;5013097;28;20087;-54
2023/05/31 02:45:53;;;;;;;0.90;0.90;;;;;;;20.60;50.07;102506.78;5011815;28;20030;-53
2023/05/31 02:48:18;;;;;;;1.00;1.00;;;;;;;20.58;50.27;102501.50;5009094;28;20650;-53
2023/05/31 02:50:44;;;;;;;1.00;0.95;;;;;;;20.59;50.66;102503.19;5007853;28;20038;-53
2023/05/31 02:53:09;;;;;;;0.82;0.82;;;;;;;20.58;50.55;102501.50;5006068;28;20034;-54
2023/05/31 02:55:37;;;;;;;0.88;0.88;;;;;;;20.59;50.40;102508.59;5010777;28;20033;-53
2023/05/31 02:58:02;;;;;;;0.80;0.80;;;;;;;20.57;50.46;102504.31;5007740;28;20041;-54
2023/05/31 03:00:28;;;;;;;0.95;0.90;;;;;;;20.57;49.97;102505.16;5010150;28;20038;-53
2023/05/31 03:02:54;;;;;;;1.25;1.15;;;;;;;20.57;50.43;102513.28;5006077;28;20032;-54
2023/05/31 03:05:20;;;;;;;0.85;0.85;;;;;;;20.57;50.38;102509.72;5007360;28;20060;-54
2023/05/31 03:07:46;;;;;;;1.30;1.10;;;;;;;20.57;50.48;102504.31;5009036;28;20057;-54
2023/05/31 03:10:11;;;;;;;1.30;0.95;;;;;;;20.56;50.15;102508.88;5006569;28;20120;-54
2023/05/31 03:12:37;;;;;;;1.08;1.02;;;;;;;20.55;50.43;102504.44;5005912;28;20071;-54
2023/05/31 03:15:04;;;;;;;0.70;0.70;;;;;;;20.56;50.46;102514.28;5005373;28;20061;-54
2023/05/31 03:17:29;;;;;;;0.65;0.65;;;;;;;20.55;50.47;102504.44;5006883;28;20034;-54
2023/05/31 03:19:55;;;;;;;0.88;0.88;;;;;;;20.55;50.25;102517.97;5007179;28;20381;-54
2023/05/31 03:22:22;;;;;;;1.08;0.98;;;;;;;20.55;50.57;102507.13;5005756;28;20040;-53
2023/05/31 03:24:47;;;;;;;1.38;1.15;;;;;;;20.54;49.85;102510.81;5006140;28;20044;-54
2023/05/31 03:27:13;;;;;;;1.00;0.98;;;;;;;20.55;50.43;102517.09;5014101;28;20037;-53
2023/05/31 03:29:41;;;;;;;1.10;1.00;;;;;;;20.53;49.95;102509.09;5002823;28;20044;-54
2023/05/31 03:32:07;;;;;;;0.70;0.70;;;;;;;20.54;50.32;102509.97;5006568;28;20493;-54
2023/05/31 03:34:32;;;;;;;0.80;0.80;;;;;;;20.53;49.86;102503.69;5007362;28;20065;-54
2023/05/31 03:36:59;;;;;;;1.02;0.98;;;;;;;20.53;50.21;102503.69;5006982;28;20034;-54
2023/05/31 03:39:24;;;;;;;0.88;0.88;;;;;;;20.52;50.30;102507.38;5006558;28;20396;-53
2023/05/31 03:41:50;;;;;;;0.90;0.90;;;;;;;20.51;50.00;102501.09;5008378;28;20042;-54
2023/05/31 03:44:15;;;;;;;1.23;1.10;;;;;;;20.51;49.97;102505.66;5005177;28;20041;-54
2023/05/31 03:46:41;;;;;;;1.05;1.05;;;;;;;20.51;49.86;102501.09;5008003;28;20045;-54
2023/05/31 03:49:07;;;;;;;0.90;0.90;;;;;;;20.50;49.90;102496.69;5005040;28;20036;-53
2023/05/31 03:51:32;;;;;;;0.90;0.90;;;;;;;20.51;50.30;102505.66;5004814;28;20395;-55
2023/05/31 03:53:57;;;;;;;1.25;1.15;;;;;;;20.50;49.78;102499.41;5006954;28;20042;-54
2023/05/31 03:56:23;;;;;;;0.95;0.88;;;;;;;20.50;49.82;102498.50;5006104;28;20058;-54
2023/05/31 03:58:48;;;;;;;1.15;1.08;;;;;;;20.50;50.10;102503.94;5005543;28;20443;-54
2023/05/31 04:01:14;;;;;;;0.90;0.90;;;;;;;20.50;50.23;102501.22;5008229;28;20369;-54
2023/05/31 04:03:39;;;;;;;0.75;0.75;;;;;;;20.51;49.83;102508.38;5002379;28;20053;-53
2023/05/31 04:06:05;;;;;;;1.55;1.27;;;;;;;20.50;50.09;102495.81;5002429;28;20057;-54
2023/05/31 04:08:30;;;;;;;1.02;0.98;;;;;;;20.50;49.91;102495.81;5006475;28;20030;-54
2023/05/31 04:10:56;;;;;;;1.10;1.00;;;;;;;20.49;50.09;102499.50;5007141;28;20568;-54
2023/05/31 04:13:21;;;;;;;1.13;0.90;;;;;;;20.49;49.65;102507.63;5008808;28;20116;-54
2023/05/31 04:15:47;;;;;;;1.30;1.13;;;;;;;20.48;50.14;102504.03;5006606;28;20108;-53
2023/05/31 04:18:12;;;;;;;0.90;0.90;;;;;;;20.48;50.20;102495.94;5006319;28;20057;-54
2023/05/31 04:20:37;;;;;;;1.10;1.00;;;;;;;20.48;49.59;102495.94;5006374;28;20044;-53
2023/05/31 04:23:03;;;;;;;0.88;0.88;;;;;;;20.47;50.01;102499.63;5007721;28;20026;-54
2023/05/31 04:25:28;;;;;;;1.10;1.05;;;;;;;20.48;49.97;102503.19;5002622;28;20494;-54
2023/05/31 04:27:54;;;;;;;1.27;0.85;;;;;;;20.48;49.99;102505.91;5005336;28;20042;-54
2023/05/31 04:30:20;;;;;;;0.80;0.80;;;;;;;20.48;49.77;102505.91;5009122;28;20034;-53
2023/05/31 04:32:52;;;;;;;2.60;1.10;;;;;;;20.47;49.58;102504.19;5005313;28;20034;-54
2023/05/31 04:35:17;;;;;;;1.58;1.17;;;;;;;20.46;49.83;102502.44;5006607;28;20475;-54
2023/05/31 04:37:43;;;;;;;0.95;0.90;;;;;;;20.46;49.83;102500.59;5004735;28;20129;-54
2023/05/31 04:40:09;;;;;;;3.53;1.10;;;;;;;20.45;49.34;102500.75;5005319;28;20070;-54
2023/05/31 04:42:36;;;;;;;1.10;0.98;;;;;;;20.46;49.50;102513.28;5002273;28;20103;-54
2023/05/31 04:45:04;;;;;;;1.10;1.00;;;;;;;20.45;49.68;102501.59;5006180;28;20030;-54
2023/05/31 04:47:32;;;;;;;0.80;0.80;;;;;;;20.45;49.63;102496.19;5007211;28;20029;-54
2023/05/31 04:49:58;;;;;;;0.90;0.90;;;;;;;20.45;49.84;102506.16;5007229;28;20391;-53
2023/05/31 04:52:31;;;;;;;1.00;0.95;;;;;;;20.45;49.90;102508.88;5005158;28;20030;-54
2023/05/31 04:54:58;;;;;;;1.05;1.00;;;;;;;20.43;49.50;102498.16;5005906;28;20395;-54
2023/05/31 04:57:25;;;;;;;1.13;1.00;;;;;;;20.44;49.56;102507.13;5006412;28;20030;-54
2023/05/31 04:59:51;;;;;;;1.15;1.08;;;;;;;20.44;49.27;102507.13;5012030;28;20503;-54
2023/05/31 05:02:18;;;;;;;0.85;0.85;;;;;;;20.44;49.14;102513.41;5011277;28;20062;-53
2023/05/31 05:04:43;;;;;;;1.10;1.00;;;;;;;20.43;49.43;102502.72;5009406;28;20121;-54
2023/05/31 05:07:09;;;;;;;1.08;0.98;;;;;;;20.44;49.43;102507.13;5008664;28;20129;-53
2023/05/31 05:09:34;;;;;;;1.20;1.10;;;;;;;20.43;49.24;102510.84;5007883;28;20034;-54
2023/05/31 05:12:00;;;;;;;1.25;1.13;;;;;;;20.43;49.73;102508.97;5008049;28;20439;-54
2023/05/31 05:14:25;;;;;;;0.93;0.93;;;;;;;20.43;49.60;102508.97;5010341;28;20061;-54
2023/05/31 05:16:51;;;;;;;1.40;1.30;;;;;;;20.42;49.30;102509.94;5008717;28;20038;-54
2023/05/31 05:19:16;;;;;;;1.02;0.93;;;;;;;20.42;49.50;102511.81;5008952;28;20065;-54
2023/05/31 05:21:41;;;;;;;1.23;1.13;;;;;;;20.43;49.26;102513.53;5014251;28;20033;-54
2023/05/31 05:24:07;;;;;;;1.55;1.10;;;;;;;20.43;49.45;102510.84;5009593;28;20033;-55
2023/05/31 05:26:33;;;;;;;1.15;1.00;;;;;;;20.42;49.18;102507.25;5010961;28;20033;-54
2023/05/31 05:28:58;;;;;;;1.20;1.10;;;;;;;20.43;49.31;102516.25;5007921;28;20021;-54
2023/05/31 05:31:23;;;;;;;1.20;1.10;;;;;;;20.41;49.46;102527.19;5015139;28;20034;-54
2023/05/31 05:33:50;;;;;;;1.38;1.25;;;;;;;20.41;49.25;102523.59;5011750;28;20038;-54
2023/05/31 05:36:16;;;;;;;1.02;0.93;;;;;;;20.41;49.32;102521.78;5006973;28;20060;-54
2023/05/31 05:38:41;;;;;;;1.27;1.10;;;;;;;20.42;49.19;102522.63;5009942;28;20496;-54
2023/05/31 05:41:10;;;;;;;1.55;1.23;;;;;;;20.41;49.59;102516.34;5008592;28;20030;-54
2023/05/31 05:43:36;;;;;;;0.90;0.90;;;;;;;20.42;49.73;102517.22;5008211;28;20038;-54
2023/05/31 05:46:01;;;;;;;0.88;0.88;;;;;;;20.41;49.43;102520.88;5008296;28;20699;-54
2023/05/31 05:48:27;;;;;;;0.90;0.90;;;;;;;20.41;49.67;102523.59;5006949;28;20041;-54
2023/05/31 05:50:52;;;;;;;1.33;1.20;;;;;;;20.41;49.44;102524.47;5006560;28;20042;-54
2023/05/31 05:53:18;;;;;;;0.90;0.90;;;;;;;20.41;49.21;102521.78;5007322;28;20125;-54
2023/05/31 05:55:51;;;;;;;1.38;1.27;;;;;;;20.41;49.97;102519.06;5010356;28;20491;-54
2023/05/31 05:58:16;;;;;;;1.00;1.00;;;;;;;20.40;49.28;102525.44;5009525;28;20034;-54
2023/05/31 06:00:44;;;;;;;0.88;0.88;;;;;;;20.40;49.18;102519.19;5009887;28;20069;-54
2023/05/31 06:03:10;;;;;;;1.10;1.00;;;;;;;20.41;49.15;102512.78;5007620;28;20494;-53
2023/05/31 06:05:35;;;;;;;0.90;0.90;;;;;;;20.40;49.70;102520.03;5008794;28;20034;-54
2023/05/31 06:08:01;;;;;;;1.13;1.05;;;;;;;20.39;49.34;102512.91;5006432;28;20068;-54
2023/05/31 06:10:26;;;;;;;1.10;1.00;;;;;;;20.40;49.76;102519.19;5008567;28;20089;-54
2023/05/31 06:12:52;;;;;;;1.10;1.00;;;;;;;20.40;49.15;102519.19;5007493;28;20042;-54
2023/05/31 06:15:17;;;;;;;1.02;0.93;;;;;;;20.39;49.42;102518.31;5007469;28;20388;-54
2023/05/31 06:17:43;;;;;;;1.13;1.02;;;;;;;20.39;49.46;102512.91;5007004;28;20034;-54
2023/05/31 06:20:10;;;;;;;1.02;1.00;;;;;;;20.40;49.44;102519.19;5008438;28;20361;-54
2023/05/31 06:22:36;;;;;;;0.90;0.90;;;;;;;20.39;49.40;102518.31;5004286;28;20038;-54
2023/05/31 06:25:02;;;;;;;1.10;1.00;;;;;;;20.39;49.69;102534.56;5010683;28;20460;-54
2023/05/31 06:27:27;;;;;;;1.30;1.20;;;;;;;20.40;49.71;102524.59;5007195;28;20030;-54
2023/05/31 06:29:57;;;;;;;1.30;1.20;;;;;;;20.40;49.85;102532.72;5009731;28;20068;-54
2023/05/31 06:32:27;;;;;;;1.10;1.00;;;;;;;20.40;49.55;102536.28;5009022;28;20128;-54
2023/05/31 06:34:53;;;;;;;0.98;0.90;;;;;;;20.40;49.82;102532.72;5010007;28;20568;-54
2023/05/31 06:37:19;;;;;;;1.08;1.08;;;;;;;20.39;49.38;102534.56;5006657;28;20029;-54
2023/05/31 06:39:44;;;;;;;0.95;0.90;;;;;;;20.39;49.44;102529.16;5007920;28;20560;-54
2023/05/31 06:42:11;;;;;;;1.17;0.95;;;;;;;20.39;49.40;102531.84;5006451;28;20117;-54
2023/05/31 06:44:36;;;;;;;1.05;0.98;;;;;;;20.40;49.64;102530.84;5006280;28;20551;-54
2023/05/31 06:47:02;;;;;;;1.30;1.08;;;;;;;20.40;49.75;102527.28;5005150;28;20034;-54
2023/05/31 06:49:27;;;;;;;1.13;1.10;;;;;;;20.39;49.54;102523.75;5006661;28;20421;-54
2023/05/31 06:51:53;;;;;;;0.90;0.90;;;;;;;20.40;49.84;102535.41;5007727;28;20022;-54
2023/05/31 06:54:18;;;;;;;0.80;0.80;;;;;;;20.39;49.65;102528.25;5004507;28;20109;-54
2023/05/31 06:56:44;;;;;;;1.10;1.00;;;;;;;20.41;49.86;102526.28;5006295;28;20033;-54
2023/05/31 06:59:09;;;;;;;0.98;0.98;;;;;;;20.40;49.81;102543.53;5006103;28;20476;-54
2023/05/31 07:01:35;;;;;;;1.00;0.80;;;;;;;20.40;49.69;102532.72;5006157;28;20038;-54
2023/05/31 07:04:00;;;;;;;1.77;0.90;;;;;;;20.40;49.92;102538.97;5005977;28;20046;-54
2023/05/31 07:06:26;;;;;;;0.90;0.90;;;;;;;20.39;49.58;102539.97;5007642;28;20480;-54
2023/05/31 07:08:51;;;;;;;1.30;1.20;;;;;;;20.42;49.64;102536.16;5007722;28;20026;-54
2023/05/31 07:11:17;;;;;;;0.85;0.70;;;;;;;20.39;49.83;102542.69;5007059;28;20084;-54
2023/05/31 07:13:43;;;;;;;1.38;0.82;;;;;;;20.40;50.00;102535.41;5007126;28;20045;-54
2023/05/31 07:16:08;;;;;;;0.93;0.82;;;;;;;20.40;49.74;102536.28;5007350;28;20037;-54
2023/05/31 07:18:33;;;;;;;0.90;0.90;;;;;;;20.40;49.62;102530.00;5005872;28;20022;-54
2023/05/31 07:20:59;;;;;;;1.20;1.10;;;;;;;20.40;49.43;102525.44;5005736;28;20522;-54
2023/05/31 07:23:25;;;;;;;1.15;1.05;;;;;;;20.40;50.07;102527.28;5007745;28;20038;-54
2023/05/31 07:25:51;;;;;;;0.80;0.80;;;;;;;20.40;49.63;102524.59;5002853;28;20034;-54
2023/05/31 07:28:16;;;;;;;0.88;0.88;;;;;;;20.40;49.87;102522.75;5012156;28;20424;-54
2023/05/31 07:30:41;;;;;;;1.15;1.00;;;;;;;20.41;49.49;102520.88;5006723;28;20126;-54
2023/05/31 07:33:07;;;;;;;1.02;1.02;;;;;;;20.40;49.89;102511.06;5014083;28;20060;-54
2023/05/31 07:35:32;;;;;;;0.95;0.95;;;;;;;20.40;49.99;102520.03;5009219;28;20137;-54
2023/05/31 07:37:59;;;;;;;0.90;0.90;;;;;;;20.40;50.13;102508.34;5005840;28;20050;-54
2023/05/31 07:40:24;;;;;;;0.90;0.90;;;;;;;20.41;49.82;102512.78;5005576;28;20510;-54
2023/05/31 07:42:49;;;;;;;0.70;0.70;;;;;;;20.41;49.52;102507.34;5005546;28;20111;-54
2023/05/31 07:45:15;;;;;;;1.00;1.00;;;;;;;20.40;49.84;102498.41;5005205;28;20033;-54
2023/05/31 07:47:40;;;;;;;0.93;0.93;;;;;;;20.41;49.65;102504.66;5004856;28;20026;-54
2023/05/31 07:50:06;;;;;;;1.02;1.02;;;;;;;20.40;50.14;102500.25;5008240;28;20062;-54
2023/05/31 07:52:32;;;;;;;0.90;0.90;;;;;;;20.41;49.97;102499.25;5007038;28;20481;-54
2023/05/31 07:54:57;;;;;;;0.80;0.80;;;;;;;20.40;49.84;102502.94;5007563;28;20030;-54
2023/05/31 07:57:23;;;;;;;1.05;1.00;;;;;;;20.40;49.87;102497.53;5006116;28;20034;-54
2023/05/31 07:59:50;;;;;;;0.70;0.70;;;;;;;20.40;50.03;102498.41;5006769;28;20041;-54
2023/05/31 08:02:16;;;;;;;1.25;1.00;;;;;;;20.40;49.84;102500.25;5006281;28;20072;-54
2023/05/31 08:04:41;;;;;;;0.77;0.77;;;;;;;20.40;50.00;102492.97;5008649;28;20060;-54
2023/05/31 08:07:07;;;;;;;1.30;1.20;;;;;;;20.41;50.00;102493.84;5004345;28;20034;-54
2023/05/31 08:09:32;;;;;;;1.17;0.90;;;;;;;20.39;49.85;102491.28;5005107;28;20089;-54
2023/05/31 08:11:57;;;;;;;0.77;0.77;;;;;;;20.41;49.88;102489.31;5006933;28;20038;-54
2023/05/31 08:14:23;;;;;;;1.45;1.20;;;;;;;20.42;50.06;102495.56;5003561;28;20536;-54
2023/05/31 08:16:49;;;;;;;0.80;0.80;;;;;;;20.41;49.94;102492.00;5006214;28;20037;-54
2023/05/31 08:19:14;;;;;;;1.08;0.90;;;;;;;20.41;50.03;102494.72;5005343;28;20383;-54
2023/05/31 08:21:40;;;;;;;1.05;1.00;;;;;;;20.41;49.87;102488.41;5005191;28;20037;-54
2023/05/31 08:24:06;;;;;;;0.80;0.80;;;;;;;20.41;49.89;102483.91;5007809;28;20038;-54
2023/05/31 08:26:32;;;;;;;1.23;1.13;;;;;;;20.41;50.21;102488.41;5006519;28;20456;-54
2023/05/31 08:28:58;;;;;;;0.80;0.80;;;;;;;20.40;50.02;102482.16;5005582;28;20097;-54
2023/05/31 08:31:23;;;;;;;1.00;1.00;;;;;;;20.42;49.99;102484.75;5008854;28;20464;-54
2023/05/31 08:33:59;;;;;;;0.90;0.90;;;;;;;20.43;49.88;102486.47;5010199;28;20038;-53
2023/05/31 08:36:26;;;;;;;1.15;1.10;;;;;;;20.42;50.01;102484.75;5009752;28;20095;-54
2023/05/31 08:38:52;;;;;;;0.98;0.85;;;;;;;20.41;49.76;102478.47;5008352;28;20046;-54
2023/05/31 08:41:18;;;;;;;2.35;1.00;;;;;;;20.42;50.36;102479.34;5007996;28;20540;-54
2023/05/31 08:43:46;;;;;;;0.77;0.77;;;;;;;20.42;50.08;102477.47;5009052;28;20440;-54
2023/05/31 08:46:14;;;;;;;1.02;1.00;;;;;;;20.42;49.93;102479.34;5007142;28;20038;-54
2023/05/31 08:48:42;;;;;;;0.98;0.93;;;;;;;20.43;50.00;102478.38;5008952;28;20469;-54
2023/05/31 08:51:08;;;;;;;1.20;1.10;;;;;;;20.43;50.29;102478.38;5006499;28;20109;-54
2023/05/31 08:53:34;;;;;;;0.68;0.68;;;;;;;20.43;49.97;102481.06;5005689;28;20392;-54
2023/05/31 08:56:08;;;;;;;1.05;1.02;;;;;;;20.43;50.23;102475.66;5004137;28;20510;-54
2023/05/31 08:58:35;;;;;;;0.80;0.80;;;;;;;20.43;49.99;102470.25;5012970;28;20037;-54
2023/05/31 09:01:02;;;;;;;0.80;0.80;;;;;;;20.43;50.24;102467.53;5009959;28;20044;-54
2023/05/31 09:03:27;;;;;;;1.42;1.10;;;;;;;20.43;50.45;102465.69;5008785;28;20068;-54
2023/05/31 09:05:54;;;;;;;1.13;0.98;;;;;;;20.44;49.79;102471.94;5007499;28;20400;-53
2023/05/31 09:08:19;;;;;;;0.90;0.90;;;;;;;20.44;50.43;102463.84;5010336;28;20042;-54
2023/05/31 09:10:45;;;;;;;0.90;0.90;;;;;;;20.45;49.79;102465.56;5015939;28;20052;-54
2023/05/31 09:13:10;;;;;;;0.80;0.80;;;;;;;20.44;49.82;102464.69;5008554;28;20472;-54
2023/05/31 09:15:36;;;;;;;0.80;0.80;;;;;;;20.44;50.27;102458.44;5009254;28;20124;-54
2023/05/31 09:18:16;;;;;;;1.08;1.00;;;;;;;20.46;50.47;102459.16;5003499;28;20105;-54
2023/05/31 09:20:42;;;;;;;0.98;0.93;;;;;;;20.46;50.23;102459.16;5009522;28;20113;-54
2023/05/31 09:23:09;;;;;;;1.10;1.10;;;;;;;20.45;50.12;102457.47;5012655;28;20487;-54
2023/05/31 09:25:52;;;;;;;0.95;0.93;;;;;;;20.48;50.17;102457.19;5010235;28;20069;-54
2023/05/31 09:28:19;;;;;;;0.90;0.80;;;;;;;20.46;50.19;102453.75;5007173;28;20109;-53
2023/05/31 09:30:45;;;;;;;1.10;1.00;;;;;;;20.47;50.04;102458.19;5008518;28;20037;-54
2023/05/31 09:33:13;;;;;;;0.88;0.88;;;;;;;20.47;50.43;102450.06;5008420;28;20039;-54
2023/05/31 09:35:55;;;;;;;1.00;0.90;;;;;;;20.49;50.19;102445.41;5008611;28;20077;-54
2023/05/31 09:38:31;;;;;;;0.80;0.80;;;;;;;20.48;50.25;102449.94;5008288;28;20045;-54
2023/05/31 09:41:11;;;;;;;0.77;0.77;;;;;;;20.49;50.47;102443.53;5006429;28;20025;-53
2023/05/31 09:43:47;;;;;;;1.15;1.05;;;;;;;20.49;50.23;102442.69;5007846;28;20029;-54
2023/05/31 09:46:15;;;;;;;1.00;1.00;;;;;;;20.48;50.21;102427.44;5008892;28;20037;-54
2023/05/31 09:48:41;;;;;;;0.80;0.80;;;;;;;20.47;50.23;102423.88;5007325;28;20501;-54
2023/05/31 09:51:08;;;;;;;1.50;1.30;;;;;;;20.48;50.50;102431.00;5007835;28;20053;-54
2023/05/31 09:53:43;;;;;;;1.17;0.95;;;;;;;20.49;50.42;102426.47;5007033;28;20089;-54
2023/05/31 09:56:10;;;;;;;0.85;0.85;;;;;;;20.49;50.31;102421.03;5007978;28;20064;-54
2023/05/31 09:58:36;;;;;;;1.13;1.05;;;;;;;20.49;50.04;102421.91;5007595;28;20026;-54
2023/05/31 10:01:02;;;;;;;1.25;1.15;;;;;;;20.49;50.58;102421.03;5006313;28;20025;-54
2023/05/31 10:03:28;;;;;;;0.88;0.88;;;;;;;20.49;50.51;102421.03;5007292;28;20112;-54
2023/05/31 10:05:54;;;;;;;1.23;1.00;;;;;;;20.50;50.42;102422.75;5008337;28;20479;-54
2023/05/31 10:08:22;;;;;;;1.58;0.98;;;;;;;20.50;50.20;102420.03;5008457;28;20037;-53
2023/05/31 10:10:47;;;;;;;0.90;0.90;;;;;;;20.50;50.14;102420.03;5006464;28;20046;-54
2023/05/31 10:13:16;;;;;;;1.60;1.10;;;;;;;20.51;50.26;102421.78;5007346;28;20034;-54
2023/05/31 10:15:43;;;;;;;1.00;1.00;;;;;;;20.50;50.52;102417.34;5009723;28;20030;-54
2023/05/31 10:18:14;;;;;;;1.33;1.23;;;;;;;20.51;50.50;102414.50;5007083;28;20022;-54
2023/05/31 10:20:55;;;;;;;1.10;1.00;;;;;;;20.53;50.38;102414.41;5006798;28;20035;-54
2023/05/31 10:23:23;;;;;;;1.10;1.10;;;;;;;20.53;50.26;102416.25;5005248;28;20058;-54
2023/05/31 10:26:09;;;;;;;1.25;1.15;;;;;;;20.56;50.23;102408.75;5009723;28;20117;-54
2023/05/31 10:28:47;;;;;;;0.82;0.82;;;;;;;20.55;50.68;102403.44;5007793;28;20411;-54
2023/05/31 10:31:14;;;;;;;2.13;1.00;;;;;;;20.54;50.33;102399.88;5009955;28;20037;-54
2023/05/31 10:33:43;;;;;;;1.08;0.90;;;;;;;20.54;50.54;102396.31;5007375;28;20034;-54
2023/05/31 10:36:09;;;;;;;1.20;1.02;;;;;;;20.55;50.73;102390.78;5007426;28;20468;-54
2023/05/31 10:39:01;;;;;;;0.93;0.93;;;;;;;20.57;50.58;102386.09;5003864;28;20053;-54
2023/05/31 10:41:33;;;;;;;1.00;1.00;;;;;;;20.56;50.38;102383.50;5013395;28;20045;-54
2023/05/31 10:44:05;;;;;;;1.30;1.20;;;;;;;20.57;50.61;102382.53;5005907;28;20112;-54
2023/05/31 10:46:33;;;;;;;;;;;;;;;20.67;50.47;102378.97;5007088;28;20452;-54
2023/05/31 10:48:59;;;;;;;1.60;1.45;;;;;;;20.59;50.84;102381.41;5007105;28;20291;-54
2023/05/31 10:51:42;;;;;;;2.03;1.20;;;;;;;20.60;50.66;102372.34;5003408;28;20117;-54
2023/05/31 10:54:08;;;;;;;1.42;1.20;;;;;;;20.58;50.76;102371.59;5006668;28;20437;-54
2023/05/31 10:56:38;;;;;;;2.03;1.40;;;;;;;20.58;50.84;102371.59;5006129;28;20045;-54
2023/05/31 10:59:08;;;;;;;1.05;0.98;;;;;;;20.60;50.92;102374.19;5008526;28;20104;-54
2023/05/31 11:01:35;;;;;;;1.30;1.20;;;;;;;20.58;50.78;102368.88;5005590;28;20038;-54
2023/05/31 11:04:01;;;;;;;1.25;1.10;;;;;;;20.59;50.82;102367.88;5006399;28;20030;-53
2023/05/31 11:06:28;;;;;;;1.58;1.13;;;;;;;20.60;50.81;102364.25;5007196;28;20033;-54
2023/05/31 11:09:23;;;;;;;1.20;1.08;;;;;;;20.61;50.79;102365.09;5006056;28;20030;-54
2023/05/31 11:11:49;;;;;;;1.73;1.15;;;;;;;20.62;51.11;102364.09;5008894;28;20046;-54
2023/05/31 11:14:26;;;;;;;2.08;1.35;;;;;;;20.61;51.21;102355.13;5006998;28;20049;-54
2023/05/31 11:16:56;;;;;;;1.45;1.35;;;;;;;20.62;50.84;102366.78;5006392;28;20037;-54
2023/05/31 11:19:27;;;;;;;1.50;1.25;;;;;;;20.64;51.14;102354.03;5007416;28;20034;-55
2023/05/31 11:22:16;;;;;;;1.38;1.27;;;;;;;20.67;51.09;102356.44;5003768;28;20041;-54
2023/05/31 11:24:55;;;;;;;1.60;1.30;;;;;;;20.66;51.28;102355.59;5002625;28;20519;-54
2023/05/31 11:27:41;;;;;;;1.45;1.20;;;;;;;20.68;51.10;102347.38;5006453;28;20085;-54